Flight Track Log - Related Links

Times and Time Zones

All times are in EDT time to prevent confusion due to time zone crossing. See the CSZ9968 flight status page for this flight to view local times or setup timezone preferences in your user account.

Time Position Orientation Groundspeed Altitude Reporting Facility
EDT Latitude Longitude Course Direction KTS MPH feet Rate Location/Type
Tue 11:01:00 AM 24.3402 114.0426 North  Level Estimated
Tue 11:02:00 AM 24.4536 114.0582 North  Level Estimated
Tue 11:03:00 AM 24.5670 114.0738 North  Level Estimated
Tue 11:04:00 AM 24.6803 114.0894 North  Level Estimated
Tue 11:05:00 AM 24.7937 114.1050 North  Level Estimated
Tue 11:06:00 AM 24.9071 114.1207 North  Level Estimated
Tue 11:07:00 AM 25.0204 114.1364 North  Level Estimated
Tue 11:08:00 AM 25.1338 114.1521 North  Level Estimated
Tue 11:09:00 AM 25.2471 114.1679 North  Level Estimated
Tue 11:10:00 AM 25.3605 114.1837 North  Level Estimated
Tue 11:11:00 AM 25.4739 114.1995 North  Level Estimated
Tue 11:12:00 AM 25.5872 114.2154 North  Level Estimated
Tue 11:13:00 AM 25.7006 114.2312 North  Level Estimated
Tue 11:14:00 AM 25.8139 114.2471 North  Level Estimated
Tue 11:15:00 AM 25.9273 114.2631 North  Level Estimated
Tue 11:16:00 AM 26.0406 114.2791 North  Level Estimated
Tue 11:17:00 AM 26.1540 114.2951 North  Level Estimated
Tue 11:18:00 AM 26.2673 114.3111 North  Level Estimated
Tue 11:19:00 AM 26.3806 114.3272 North  Level Estimated
Tue 11:20:00 AM 26.4940 114.3433 North  Level Estimated
Tue 11:21:00 AM 26.6073 114.3594 North  Level Estimated
Tue 11:22:00 AM 26.7207 114.3756 North  Level Estimated
Tue 11:23:00 AM 26.8340 114.3917 North  Level Estimated
Tue 11:24:00 AM 26.9473 114.4080 North  Level Estimated
Tue 11:25:00 AM 27.0606 114.4242 North  Level Estimated
Tue 11:26:00 AM 27.1740 114.4405 North  Level Estimated
Tue 11:27:00 AM 27.2873 114.4569 North  Level Estimated
Tue 11:28:00 AM 27.4006 114.4732 North  Level Estimated
Tue 11:29:00 AM 27.5140 114.4896 North  Level Estimated
Tue 11:30:00 AM 27.6273 114.5060 North  Level Estimated
Tue 11:31:00 AM 27.7406 114.5225 North  Level Estimated
Tue 11:32:00 AM 27.8539 114.5390 North  Level Estimated
Tue 11:33:00 AM 27.9672 114.5555 North  Level Estimated
Tue 11:34:00 AM 28.0805 114.5721 North  Level Estimated
Tue 11:35:00 AM 28.1939 114.5887 North  Level Estimated
Tue 11:36:00 AM 28.3072 114.6053 North  Level Estimated
Tue 11:37:00 AM 28.4205 114.6220 North  Level Estimated
Tue 11:38:00 AM 28.5338 114.6387 North  Level Estimated
Tue 11:39:00 AM 28.6471 114.6554 North  Level Estimated
Tue 11:40:00 AM 28.7604 114.6722 North  Level Estimated
Tue 11:41:00 AM 28.8737 114.6890 North  Level Estimated
Tue 11:42:00 AM 28.9870 114.7059 North  Level Estimated
Tue 11:43:00 AM 29.1003 114.7227 North  Level Estimated
Tue 11:44:00 AM 29.2136 114.7397 North  Level Estimated
Tue 11:45:00 AM 29.3269 114.7566 North  Level Estimated
Tue 11:46:00 AM 29.4402 114.7736 North  Level Estimated
Tue 11:47:00 AM 29.5534 114.7907 North  Level Estimated
Tue 11:48:00 AM 29.6667 114.8077 North  Level Estimated
Tue 11:49:00 AM 29.7800 114.8249 North  Level Estimated
Tue 11:50:00 AM 29.8933 114.8420 North  Level Estimated
Tue 11:51:00 AM 30.0066 114.8592 North  Level Estimated
Tue 11:52:00 AM 30.1199 114.8764 North  Level Estimated
Tue 11:53:00 AM 30.2331 114.8937 North  Level Estimated
Tue 11:54:00 AM 30.3464 114.9110 North  Level Estimated
Tue 11:55:00 AM 30.4597 114.9284 North  Level Estimated
Tue 11:56:00 AM 30.5729 114.9457 North  Level Estimated
Tue 11:57:00 AM 30.6862 114.9632 North  Level Estimated
Tue 11:58:00 AM 30.7994 114.9807 North  Level Estimated
Tue 11:59:00 AM 30.9127 114.9982 North  Level Estimated
Tue 12:00:00 PM 31.0260 115.0157 North  Level Estimated
Tue 12:01:00 PM 31.1392 115.0333 North  Level Estimated
Tue 12:02:00 PM 31.2525 115.0510 North  Level Estimated
Tue 12:03:00 PM 31.3657 115.0686 North  Level Estimated
Tue 12:04:00 PM 31.4790 115.0864 North  Level Estimated
Tue 12:05:00 PM 31.5922 115.1041 North  Level Estimated
Tue 12:06:00 PM 31.7055 115.1219 North  Level Estimated
Tue 12:07:00 PM 31.8187 115.1398 North  Level Estimated
Tue 12:08:00 PM 31.9319 115.1577 North  Level Estimated
Tue 12:09:00 PM 32.0452 115.1756 North  Level Estimated
Tue 12:10:00 PM 32.1584 115.1936 North  Level Estimated
Tue 12:11:00 PM 32.2716 115.2116 North  Level Estimated
Tue 12:12:00 PM 32.3849 115.2297 North  Level Estimated
Tue 12:13:00 PM 32.4981 115.2478 North  Level Estimated
Tue 12:14:00 PM 32.6113 115.2660 North  Level Estimated
Tue 12:15:00 PM 32.7245 115.2842 North  Level Estimated
Tue 12:16:00 PM 32.8377 115.3025 North  Level Estimated
Tue 12:17:00 PM 32.9510 115.3208 North  Level Estimated
Tue 12:18:00 PM 33.0642 115.3391 North  Level Estimated
Tue 12:19:00 PM 33.1774 115.3576 North  Level Estimated
Tue 12:20:00 PM 33.2906 115.3760 North  Level Estimated
Tue 12:21:00 PM 33.4038 115.3945 North  Level Estimated
Tue 12:22:00 PM 33.5170 115.4130 North  Level Estimated
Tue 12:23:00 PM 33.6302 115.4316 North  Level Estimated
Tue 12:24:00 PM 33.7434 115.4503 North  Level Estimated
Tue 12:25:00 PM 33.8566 115.4690 North  Level Estimated
Tue 12:26:00 PM 33.9698 115.4877 North  Level Estimated
Tue 12:27:00 PM 34.0830 115.5065 North  Level Estimated
Tue 12:28:00 PM 34.1961 115.5253 North  Level Estimated
Tue 12:29:00 PM 34.3093 115.5442 North  Level Estimated
Tue 12:30:00 PM 34.4225 115.5632 North  Level Estimated
Tue 12:31:00 PM 34.5357 115.5822 North  Level Estimated
Tue 12:32:00 PM 34.6488 115.6012 North  Level Estimated
Tue 12:33:00 PM 34.7620 115.6203 North  Level Estimated
Tue 12:34:00 PM 34.8752 115.6395 North  Level Estimated
Tue 12:35:00 PM 34.9883 115.6587 North  Level Estimated
Tue 12:36:00 PM 35.1015 115.6779 North  Level Estimated
Tue 12:37:00 PM 35.2147 115.6972 North  Level Estimated
Tue 12:38:00 PM 35.3278 115.7166 North  Level Estimated
Tue 12:39:00 PM 35.4410 115.7360 North  Level Estimated
Tue 12:40:00 PM 35.5541 115.7555 North  Level Estimated
Tue 12:41:00 PM 35.6673 115.7750 North  Level Estimated
Tue 12:42:00 PM 35.7804 115.7946 North  Level Estimated
Tue 12:43:00 PM 35.8935 115.8142 North  Level Estimated
Tue 12:44:00 PM 36.0067 115.8339 North  Level Estimated
Tue 12:45:00 PM 36.1198 115.8537 North  Level Estimated
Tue 12:46:00 PM 36.2329 115.8735 North  Level Estimated
Tue 12:47:00 PM 36.3461 115.8933 North  Level Estimated
Tue 12:48:00 PM 36.4592 115.9133 North  Level Estimated
Tue 12:49:00 PM 36.5723 115.9333 North  Level Estimated
Tue 12:50:00 PM 36.6854 115.9533 North  Level Estimated
Tue 12:51:00 PM 36.7985 115.9734 North  Level Estimated
Tue 12:52:00 PM 36.9117 115.9936 North  Level Estimated
Tue 12:53:00 PM 37.0248 116.0138 North  Level Estimated
Tue 12:54:00 PM 37.1379 116.0340 North  Level Estimated
Tue 12:55:00 PM 37.2510 116.0544 North  Level Estimated
Tue 12:56:00 PM 37.3641 116.0748 North  Level Estimated
Tue 12:57:00 PM 37.4771 116.0953 North  Level Estimated
Tue 12:58:00 PM 37.5902 116.1158 North  Level Estimated
Tue 12:59:00 PM 37.7033 116.1364 North  Level Estimated
Tue 01:00:00 PM 37.8164 116.1570 North  Level Estimated
Tue 01:01:00 PM 37.9295 116.1777 North  Level Estimated
Tue 01:02:00 PM 38.0425 116.1985 North  Level Estimated
Tue 01:03:00 PM 38.1556 116.2194 North  Level Estimated
Tue 01:04:00 PM 38.2687 116.2403 North  Level Estimated
Tue 01:05:00 PM 38.3817 116.2612 North  Level Estimated
Tue 01:06:00 PM 38.4948 116.2823 North  Level Estimated
Tue 01:07:00 PM 38.6078 116.3034 North  Level Estimated
Tue 01:08:00 PM 38.7209 116.3245 North  Level Estimated
Tue 01:09:00 PM 38.8340 116.3458 North  Level Estimated
Tue 01:10:00 PM 38.9470 116.3671 North  Level Estimated
Tue 01:11:00 PM 39.0600 116.3885 North  Level Estimated
Tue 01:12:00 PM 39.1731 116.4099 North  Level Estimated
Tue 01:13:00 PM 39.2861 116.4314 North  Level Estimated
Tue 01:14:00 PM 39.3991 116.4530 North  Level Estimated
Tue 01:15:00 PM 39.5121 116.4746 North  Level Estimated
Tue 01:16:00 PM 39.6252 116.4964 North  Level Estimated
Tue 01:17:00 PM 39.7382 116.5182 North  Level Estimated
Tue 01:18:00 PM 39.8512 116.5400 North  Level Estimated
Tue 01:19:00 PM 39.9642 116.5620 North  Level Estimated
Tue 01:20:00 PM 40.0772 116.5840 North  Level Estimated
Tue 01:21:00 PM 40.0801 116.5846 North  Level Estimated
Tue 01:22:00 PM 40.0801 116.5846 288° West  Level Estimated
Tue 01:23:00 PM 40.0801 116.5846 288° West  Level Estimated
Tue 01:24:00 PM 40.0801 116.5846 288° West  Level Estimated
Tue 01:25:00 PM 40.0801 116.5846 288° West  Level Estimated
Tue 01:26:00 PM 40.0801 116.5846 288° West  Level Estimated
Tue 01:27:00 PM 40.0801 116.5846 288° West  Level Estimated
Tue 01:28:00 PM 40.0801 116.5846 288° West  Level Estimated
Tue 01:29:00 PM 40.0801 116.5846 288° West  Level Estimated
Tue 01:30:00 PM 40.0801 116.5846 288° West  Level Estimated
Tue 01:31:00 PM 40.0801 116.5846 288° West  Level Estimated
Tue 01:32:00 PM 40.0801 116.5846 288° West  Level Estimated
Tue 01:33:00 PM 40.0801 116.5846 288° West  Level Estimated
Tue 01:34:00 PM 40.0801 116.5846 288° West  Level Estimated
Tue 01:35:00 PM 40.0801 116.5846 288° West  Level Estimated
Tue 01:36:00 PM 40.0801 116.5846 288° West  Level Estimated

Login

Don't have an account? Register now (free) for customized features, flight alerts, and more!